Time;durP1;ratioP1;P1;durP2;ratioP2;P2;SDS_P1;SDS_P2;PMS_P1;PMS_P2;Temp;Humidity;BMP_temperature;BMP_pressure;BME280_temperature;BME280_humidity;BME280_pressure;Samples;Min_cycle;Max_cycle;Signal;HPM_P1;HPM_P2
2023/06/15 00:00:55;;;;;;;68.53;4.40;;;21.40;1.00;;;;;;5079067;28;20767;-80
2023/06/15 00:03:21;;;;;;;69.67;5.23;;;21.40;1.00;;;;;;5061646;28;20164;-80
2023/06/15 00:05:46;;;;;;;71.43;5.10;;;21.40;1.00;;;;;;5061147;28;20410;-80
2023/06/15 00:08:12;;;;;;;70.50;5.27;;;21.30;1.00;;;;;;5079132;28;20509;-80
2023/06/15 00:10:38;;;;;;;69.07;5.10;;;21.30;1.00;;;;;;5061684;28;20195;-80
2023/06/15 00:13:04;;;;;;;69.33;5.00;;;21.30;1.00;;;;;;5079089;28;20405;-80
2023/06/15 00:15:30;;;;;;;68.87;5.07;;;21.30;1.00;;;;;;5078916;28;20167;-79
2023/06/15 00:17:56;;;;;;;70.27;4.60;;;21.20;1.00;;;;;;5078259;28;20188;-78
2023/06/15 00:20:28;;;;;;;69.13;4.77;;;21.20;1.00;;;;;;5077900;28;20394;-79
2023/06/15 00:22:55;;;;;;;69.40;4.90;;;21.10;1.00;;;;;;5078901;28;20231;-79
2023/06/15 00:25:21;;;;;;;70.07;5.00;;;21.00;1.00;;;;;;5078145;28;20405;-79
2023/06/15 00:27:47;;;;;;;71.40;5.90;;;21.00;1.00;;;;;;5078622;28;20480;-80
2023/06/15 00:30:13;;;;;;;70.40;5.97;;;21.00;1.00;;;;;;5078020;28;20403;-78
2023/06/15 00:32:39;;;;;;;71.30;5.77;;;20.90;1.00;;;;;;5077948;28;20171;-79
2023/06/15 00:35:06;;;;;;;70.00;6.60;;;20.90;1.00;;;;;;5078184;28;20398;-79
2023/06/15 00:37:32;;;;;;;69.47;6.87;;;20.80;1.00;;;;;;5077700;28;20446;-79
2023/06/15 00:39:58;;;;;;;68.87;6.70;;;20.80;1.00;;;;;;5077752;28;20405;-78
2023/06/15 00:42:23;;;;;;;69.80;7.23;;;20.80;1.00;;;;;;5077389;28;20406;-78
2023/06/15 00:44:49;;;;;;;71.43;8.53;;;20.70;1.00;;;;;;5059332;28;20191;-79
2023/06/15 00:47:19;;;;;;;70.60;8.43;;;20.70;1.00;;;;;;5077586;28;20621;-78
2023/06/15 00:49:45;;;;;;;70.87;10.33;;;20.60;1.00;;;;;;5077630;28;20472;-78
2023/06/15 00:52:14;;;;;;;70.47;8.60;;;20.60;1.00;;;;;;5077470;28;20909;-79
2023/06/15 00:54:43;;;;;;;71.17;8.87;;;20.50;1.00;;;;;;5059177;28;20413;-78
2023/06/15 00:57:14;;;;;;;71.17;9.93;;;20.50;1.00;;;;;;5077547;28;20501;-79
2023/06/15 00:59:40;;;;;;;70.23;10.57;;;20.50;1.00;;;;;;5059325;28;20416;-79
2023/06/15 01:02:12;;;;;;;70.50;11.47;;;20.50;1.00;;;;;;5077804;28;20391;-79
2023/06/15 01:04:41;;;;;;;71.80;11.40;;;20.40;1.00;;;;;;5077552;28;20425;-79
2023/06/15 01:07:10;;;;;;;71.97;11.00;;;20.30;1.00;;;;;;5076908;28;20425;-79
2023/06/15 01:09:37;;;;;;;70.90;11.40;;;20.30;1.00;;;;;;5076780;28;20402;-80
2023/06/15 01:12:07;;;;;;;71.37;12.03;;;20.30;1.00;;;;;;5077661;28;20418;-80
2023/06/15 01:14:33;;;;;;;71.20;11.37;;;20.30;1.00;;;;;;5077351;28;20403;-80
2023/06/15 01:17:10;;;;;;;70.23;10.80;;;20.30;1.00;;;;;;5076650;28;20534;-79
2023/06/15 01:20:04;;;;;;;71.27;12.50;;;20.30;1.00;;;;;;5058922;28;20409;-78
2023/06/15 01:22:49;;;;;;;71.40;9.60;;;20.20;1.00;;;;;;5076955;28;20474;-78
2023/06/15 01:25:29;;;;;;;71.60;12.07;;;20.20;1.00;;;;;;5076919;28;20392;-79
2023/06/15 01:28:01;;;;;;;71.20;11.23;;;20.10;1.00;;;;;;5058776;28;20426;-79
2023/06/15 01:30:51;;;;;;;72.80;12.17;;;20.10;1.00;;;;;;5076819;28;20402;-78
2023/06/15 01:33:17;;;;;;;71.60;11.50;;;20.10;1.00;;;;;;5077134;28;20397;-80
2023/06/15 01:35:43;;;;;;;74.27;12.73;;;20.00;1.00;;;;;;5077956;28;20396;-80
2023/06/15 01:38:10;;;;;;;71.60;10.20;;;19.90;1.00;;;;;;5077627;28;20199;-80
2023/06/15 01:40:39;;;;;;;70.03;8.80;;;19.80;1.00;;;;;;5077693;28;20434;-80
2023/06/15 01:43:12;;;;;;;71.20;11.07;;;19.80;1.00;;;;;;5078205;28;20396;-80
2023/06/15 01:45:42;;;;;;;69.17;8.80;;;19.80;1.00;;;;;;5060021;28;20430;-80
2023/06/15 01:48:08;;;;;;;71.50;11.60;;;19.70;1.00;;;;;;5059713;28;20430;-80
2023/06/15 01:50:35;;;;;;;69.27;8.43;;;19.70;1.00;;;;;;5077801;28;20782;-81
2023/06/15 01:53:02;;;;;;;70.10;9.80;;;19.70;1.00;;;;;;5059093;28;20410;-80
2023/06/15 01:55:28;;;;;;;70.67;9.70;;;19.70;1.00;;;;;;5059237;28;20467;-80
2023/06/15 01:57:54;;;;;;;71.80;9.37;;;19.70;1.00;;;;;;5077523;28;21119;-80
2023/06/15 02:00:22;;;;;;;68.90;8.40;;;19.70;1.00;;;;;;5076973;28;20414;-80
2023/06/15 02:02:48;;;;;;;71.17;8.90;;;19.70;1.00;;;;;;5077445;28;20399;-80
2023/06/15 02:05:14;;;;;;;70.80;10.17;;;19.60;1.00;;;;;;5078117;28;20915;-80
2023/06/15 02:07:40;;;;;;;69.60;8.50;;;19.60;1.00;;;;;;5076746;28;20185;-80
2023/06/15 02:10:07;;;;;;;70.47;9.43;;;19.60;1.00;;;;;;5076689;28;20434;-80
2023/06/15 02:12:33;;;;;;;70.10;9.17;;;19.50;1.00;;;;;;5058734;28;20173;-80
2023/06/15 02:15:02;;;;;;;71.17;9.10;;;19.50;1.00;;;;;;5077267;28;20912;-80
2023/06/15 02:17:38;;;;;;;69.47;9.70;;;19.40;1.00;;;;;;5077141;28;20461;-80
2023/06/15 02:20:05;;;;;;;69.87;10.07;;;19.30;1.00;;;;;;5077365;28;20409;-80
2023/06/15 02:22:31;;;;;;;71.57;9.93;;;19.30;1.00;;;;;;5077545;28;20396;-80
2023/06/15 02:24:56;;;;;;;70.57;9.27;;;19.30;1.00;;;;;;5058849;28;20413;-80
2023/06/15 02:27:22;;;;;;;70.57;9.60;;;19.30;1.00;;;;;;5076557;28;20671;-80
2023/06/15 02:29:48;;;;;;;69.60;10.30;;;19.30;1.00;;;;;;5059002;28;20165;-80
2023/06/15 02:32:36;;;;;;;73.00;9.63;;;19.30;1.00;;;;;;5077160;28;20251;-80
2023/06/15 02:35:07;;;;;;;69.57;8.70;;;19.20;1.00;;;;;;5076815;28;20147;-80
2023/06/15 02:37:33;;;;;;;69.60;9.00;;;19.20;1.00;;;;;;5076727;28;20873;-80
2023/06/15 02:39:59;;;;;;;69.97;9.57;;;19.20;1.00;;;;;;5076753;28;20426;-80
2023/06/15 02:42:24;;;;;;;70.80;9.97;;;19.10;1.00;;;;;;5076157;28;20411;-80
2023/06/15 02:44:50;;;;;;;74.07;9.50;;;19.20;1.00;;;;;;5076703;28;20205;-80
2023/06/15 02:47:16;;;;;;;70.10;8.93;;;19.20;1.00;;;;;;5076191;28;20233;-80
2023/06/15 02:49:42;;;;;;;69.60;7.87;;;19.10;1.00;;;;;;5076402;28;20509;-80
2023/06/15 02:52:08;;;;;;;69.80;7.97;;;19.00;1.00;;;;;;5076657;28;20433;-80
2023/06/15 02:54:36;;;;;;;70.27;8.13;;;18.90;1.00;;;;;;5075087;28;20221;-79
2023/06/15 02:57:06;;;;;;;69.53;7.87;;;18.80;1.00;;;;;;5075229;28;20450;-80
2023/06/15 02:59:36;;;;;;;69.57;7.20;;;18.80;1.00;;;;;;5058033;28;20436;-79
2023/06/15 03:02:04;;;;;;;70.20;7.37;;;18.80;1.00;;;;;;5074745;28;20405;-79
2023/06/15 03:04:30;;;;;;;68.47;7.03;;;18.80;1.00;;;;;;5075624;28;20882;-79
2023/06/15 03:06:57;;;;;;;68.83;6.83;;;18.80;1.00;;;;;;5061004;28;20422;-79
2023/06/15 03:09:23;;;;;;;68.60;6.63;;;18.80;1.00;;;;;;5079302;28;20390;-79
2023/06/15 03:11:50;;;;;;;69.17;7.07;;;18.80;1.00;;;;;;5079118;28;20448;-78
2023/06/15 03:14:20;;;;;;;69.20;6.30;;;18.70;1.00;;;;;;5061219;28;20406;-80
2023/06/15 03:16:47;;;;;;;68.70;5.70;;;18.70;1.00;;;;;;5078918;28;20758;-79
2023/06/15 03:19:15;;;;;;;67.80;5.50;;;18.70;1.00;;;;;;5079325;28;20425;-79
2023/06/15 03:21:41;;;;;;;68.50;6.00;;;18.60;1.00;;;;;;5078935;28;20395;-79
2023/06/15 03:24:08;;;;;;;69.27;6.57;;;18.60;1.00;;;;;;5060940;28;20406;-79
2023/06/15 03:26:36;;;;;;;69.50;5.80;;;18.60;1.00;;;;;;5078465;28;20406;-78
2023/06/15 03:29:02;;;;;;;70.37;5.60;;;18.60;1.00;;;;;;5078840;28;20395;-79
2023/06/15 03:31:33;;;;;;;69.83;5.67;;;18.60;1.00;;;;;;5078513;28;20399;-79
2023/06/15 03:34:00;;;;;;;68.17;6.20;;;18.50;1.00;;;;;;5078954;28;20931;-79
2023/06/15 03:36:29;;;;;;;68.80;6.40;;;18.50;1.00;;;;;;5078436;28;20529;-78
2023/06/15 03:38:57;;;;;;;68.77;6.20;;;18.50;1.00;;;;;;5078171;28;20457;-78
2023/06/15 03:41:22;;;;;;;69.40;6.27;;;18.50;1.00;;;;;;5078355;28;20398;-78
2023/06/15 03:43:48;;;;;;;68.77;6.07;;;18.40;1.00;;;;;;5060293;28;20416;-79
2023/06/15 03:46:14;;;;;;;73.67;6.97;;;18.40;1.00;;;;;;5078289;28;20171;-79
2023/06/15 03:48:40;;;;;;;68.20;5.90;;;18.40;1.00;;;;;;5078350;28;20206;-79
2023/06/15 03:51:05;;;;;;;68.47;5.90;;;18.40;1.00;;;;;;5078326;28;20168;-78
2023/06/15 03:53:31;;;;;;;70.00;5.80;;;18.40;1.00;;;;;;5077749;28;20773;-79
2023/06/15 03:55:57;;;;;;;69.30;6.00;;;18.40;1.00;;;;;;5078516;28;20205;-79
2023/06/15 03:58:24;;;;;;;69.10;6.77;;;18.40;1.00;;;;;;5060292;28;20207;-79
2023/06/15 04:00:52;;;;;;;69.10;5.57;;;18.40;1.00;;;;;;5077905;28;20229;-79
2023/06/15 04:03:18;;;;;;;69.17;5.80;;;18.40;1.00;;;;;;5078090;28;20770;-79
2023/06/15 04:05:44;;;;;;;68.30;5.77;;;18.40;1.00;;;;;;5077807;28;20398;-78
2023/06/15 04:08:10;;;;;;;68.60;5.83;;;18.40;1.00;;;;;;5077715;28;20187;-79
2023/06/15 04:10:36;;;;;;;77.40;7.33;;;18.40;1.00;;;;;;5078822;28;20417;-80
2023/06/15 04:13:03;;;;;;;71.47;5.43;;;18.30;1.00;;;;;;5080003;28;20773;-80
2023/06/15 04:15:29;;;;;;;67.87;6.10;;;18.30;1.00;;;;;;5079003;28;20403;-80
2023/06/15 04:17:55;;;;;;;68.97;6.87;;;18.40;1.00;;;;;;5061067;28;20533;-80
2023/06/15 04:20:21;;;;;;;72.67;6.90;;;18.40;1.00;;;;;;5061433;28;20398;-80
2023/06/15 04:22:46;;;;;;;68.90;7.20;;;18.30;1.00;;;;;;5061617;28;20174;-80
2023/06/15 04:25:12;;;;;;;74.23;7.40;;;18.30;1.00;;;;;;5079325;28;20870;-80
2023/06/15 04:27:39;;;;;;;70.30;8.37;;;18.30;1.00;;;;;;5061382;28;20187;-80
2023/06/15 04:30:06;;;;;;;69.90;9.17;;;18.40;1.00;;;;;;5078792;28;20245;-80
2023/06/15 04:32:32;;;;;;;72.87;7.87;;;18.40;1.00;;;;;;5060944;28;20415;-80
2023/06/15 04:34:59;;;;;;;71.47;6.93;;;18.60;1.00;;;;;;5079480;28;20541;-80
2023/06/15 04:37:32;;;;;;;68.13;5.40;;;18.90;1.00;;;;;;5079026;28;20537;-80
2023/06/15 04:39:59;;;;;;;68.90;5.37;;;19.20;1.00;;;;;;5079176;28;20409;-80
2023/06/15 04:42:26;;;;;;;68.47;6.00;;;19.40;1.00;;;;;;5078823;28;20904;-80
2023/06/15 04:44:53;;;;;;;68.77;5.57;;;19.70;1.00;;;;;;5060345;28;20414;-80
2023/06/15 04:47:18;;;;;;;68.20;5.07;;;19.90;1.00;;;;;;5077549;28;20426;-80
2023/06/15 04:49:44;;;;;;;68.30;5.10;;;20.00;1.00;;;;;;5059451;28;20456;-78
2023/06/15 04:52:10;;;;;;;68.77;5.07;;;20.20;1.00;;;;;;5078272;28;20156;-79
2023/06/15 04:54:36;;;;;;;68.70;5.57;;;20.40;1.00;;;;;;5078002;28;20190;-79
2023/06/15 04:57:02;;;;;;;70.67;5.80;;;20.50;1.00;;;;;;5077943;28;20457;-79
2023/06/15 04:59:28;;;;;;;70.30;5.70;;;20.70;1.00;;;;;;5077441;28;20166;-79
2023/06/15 05:01:53;;;;;;;70.77;5.77;;;20.80;1.00;;;;;;5059560;28;20195;-79
2023/06/15 05:04:22;;;;;;;71.77;5.70;;;21.00;1.00;;;;;;5078325;28;20162;-79
2023/06/15 05:06:48;;;;;;;69.17;6.10;;;21.10;1.00;;;;;;5077663;28;20687;-80
2023/06/15 05:09:14;;;;;;;71.10;5.93;;;21.20;1.00;;;;;;5077729;28;20428;-80
2023/06/15 05:11:40;;;;;;;70.30;6.00;;;21.10;1.00;;;;;;5077476;28;20160;-80
2023/06/15 05:14:05;;;;;;;71.27;6.97;;;21.00;1.00;;;;;;5059634;28;20404;-78
2023/06/15 05:16:31;;;;;;;73.20;7.60;;;20.80;1.00;;;;;;5058939;28;20540;-79
2023/06/15 05:18:57;;;;;;;69.80;6.80;;;20.70;1.00;;;;;;5059119;28;20572;-79
2023/06/15 05:21:23;;;;;;;69.60;5.77;;;20.50;1.00;;;;;;5076813;28;20157;-78
2023/06/15 05:23:48;;;;;;;71.87;6.60;;;20.40;1.00;;;;;;5076988;28;20571;-79
2023/06/15 05:26:15;;;;;;;71.37;7.50;;;20.40;1.00;;;;;;5076911;28;20172;-79
2023/06/15 05:28:40;;;;;;;71.00;6.73;;;20.30;1.00;;;;;;5076097;28;20235;-79
2023/06/15 05:31:08;;;;;;;69.57;6.03;;;20.10;1.00;;;;;;5077181;28;20906;-78
2023/06/15 05:33:35;;;;;;;69.80;6.50;;;20.10;1.00;;;;;;5060148;28;20178;-79
2023/06/15 05:36:01;;;;;;;70.60;6.27;;;20.10;1.00;;;;;;5077899;28;20402;-80
2023/06/15 05:38:27;;;;;;;69.13;5.43;;;20.10;1.00;;;;;;5079217;28;20454;-79
2023/06/15 05:40:53;;;;;;;71.90;6.83;;;20.00;1.00;;;;;;5080664;28;20157;-80
2023/06/15 05:43:19;;;;;;;72.30;8.17;;;19.90;1.00;;;;;;5063173;28;20233;-80
2023/06/15 05:45:47;;;;;;;69.37;5.93;;;19.60;1.00;;;;;;5077300;28;20161;-80
2023/06/15 05:48:13;;;;;;;71.10;6.67;;;19.60;1.00;;;;;;5059405;28;20440;-80
2023/06/15 05:50:39;;;;;;;71.17;6.13;;;19.60;1.00;;;;;;5058658;28;20438;-80
2023/06/15 05:53:08;;;;;;;70.23;5.87;;;19.70;1.00;;;;;;5059131;28;20952;-79
2023/06/15 05:55:33;;;;;;;70.20;6.00;;;19.70;1.00;;;;;;5077048;28;20971;-80
2023/06/15 05:58:01;;;;;;;75.30;7.60;;;19.70;1.00;;;;;;5076555;28;20529;-80
2023/06/15 06:00:30;;;;;;;74.90;6.70;;;19.80;1.00;;;;;;5076677;28;20172;-80
2023/06/15 06:02:56;;;;;;;72.20;5.83;;;19.80;1.00;;;;;;5076818;28;20400;-80
2023/06/15 06:05:23;;;;;;;69.63;5.77;;;19.70;1.00;;;;;;5059063;28;20893;-80
2023/06/15 06:07:49;;;;;;;70.87;6.43;;;19.70;1.00;;;;;;5058497;28;20432;-80
2023/06/15 06:10:19;;;;;;;71.07;6.53;;;19.80;1.00;;;;;;5058846;28;20410;-79
2023/06/15 06:12:45;;;;;;;68.80;6.00;;;19.80;1.00;;;;;;5076801;28;20403;-79
2023/06/15 06:15:11;;;;;;;71.10;6.47;;;19.80;1.00;;;;;;5076720;28;20468;-80
2023/06/15 06:17:36;;;;;;;73.30;6.47;;;19.70;1.00;;;;;;5058990;28;20455;-79
2023/06/15 06:20:03;;;;;;;68.67;6.17;;;19.80;1.00;;;;;;5059447;28;20174;-81
2023/06/15 06:22:29;;;;;;;71.50;6.67;;;19.80;1.00;;;;;;5077451;28;20155;-81
2023/06/15 06:24:54;;;;;;;71.90;5.80;;;19.90;1.00;;;;;;5076785;28;20897;-80
2023/06/15 06:27:20;;;;;;;68.90;6.00;;;19.90;1.00;;;;;;5076617;28;20189;-80
2023/06/15 06:29:46;;;;;;;74.17;7.60;;;20.00;1.00;;;;;;5076722;28;20171;-80
2023/06/15 06:32:11;;;;;;;70.30;7.10;;;20.00;1.00;;;;;;5058738;28;20198;-80
2023/06/15 06:34:37;;;;;;;71.17;7.57;;;19.90;1.00;;;;;;5058205;28;20227;-80
2023/06/15 06:37:04;;;;;;;71.17;6.70;;;19.90;1.00;;;;;;5076303;28;20201;-80
2023/06/15 06:39:30;;;;;;;70.97;6.33;;;19.90;1.00;;;;;;5058808;28;20164;-80
2023/06/15 06:41:56;;;;;;;68.90;6.73;;;19.90;1.00;;;;;;5076195;28;20399;-79
2023/06/15 06:44:22;;;;;;;68.40;6.50;;;19.90;1.00;;;;;;5076647;28;20453;-80
2023/06/15 06:46:47;;;;;;;71.33;7.67;;;20.00;1.00;;;;;;5058274;28;20228;-80
2023/06/15 06:49:13;;;;;;;73.40;7.37;;;20.00;1.00;;;;;;5075925;28;20206;-80
2023/06/15 06:51:39;;;;;;;71.83;7.13;;;20.10;1.00;;;;;;5076374;28;20158;-79
2023/06/15 06:54:05;;;;;;;69.07;7.00;;;20.10;1.00;;;;;;5076608;28;20160;-80
2023/06/15 06:56:30;;;;;;;74.90;8.27;;;20.20;1.00;;;;;;5057897;28;20259;-80
2023/06/15 06:58:56;;;;;;;71.90;7.77;;;20.20;1.00;;;;;;5075798;28;20196;-80
2023/06/15 07:01:23;;;;;;;70.90;7.20;;;20.30;1.00;;;;;;5076250;28;20183;-80
2023/06/15 07:03:49;;;;;;;71.30;7.70;;;20.30;1.00;;;;;;5076023;28;20156;-80
2023/06/15 07:06:15;;;;;;;71.00;7.30;;;20.40;1.00;;;;;;5076666;28;20450;-80
2023/06/15 07:08:41;;;;;;;69.87;7.53;;;20.50;1.00;;;;;;5058446;28;20184;-80
2023/06/15 07:11:06;;;;;;;69.43;7.43;;;20.50;1.00;;;;;;5076965;28;20442;-79
2023/06/15 07:13:33;;;;;;;69.20;7.03;;;20.50;1.00;;;;;;5076023;28;20161;-80
2023/06/15 07:15:59;;;;;;;71.63;7.07;;;20.50;1.00;;;;;;5058146;28;20177;-79
2023/06/15 07:18:25;;;;;;;71.53;6.50;;;20.60;1.00;;;;;;5075807;28;20985;-80
2023/06/15 07:20:53;;;;;;;71.90;7.83;;;20.70;1.00;;;;;;5075708;28;20164;-80
2023/06/15 07:23:23;;;;;;;70.30;7.50;;;20.70;1.00;;;;;;5075476;28;20397;-80
2023/06/15 07:25:52;;;;;;;69.97;8.47;;;20.80;1.00;;;;;;5075654;28;20394;-80
2023/06/15 07:28:19;;;;;;;69.90;7.63;;;20.80;1.00;;;;;;5075293;28;20426;-80
2023/06/15 07:30:48;;;;;;;69.77;6.90;;;20.90;1.00;;;;;;5075910;28;20409;-79
2023/06/15 07:33:14;;;;;;;70.57;8.20;;;21.00;1.00;;;;;;5074857;28;20810;-80
2023/06/15 07:35:40;;;;;;;70.47;7.73;;;21.00;1.00;;;;;;5075144;28;20395;-78
2023/06/15 07:38:05;;;;;;;73.43;13.37;;;21.00;1.00;;;;;;5074794;28;20677;-79
2023/06/15 07:40:31;;;;;;;71.10;8.53;;;21.10;1.00;;;;;;5075466;28;20400;-79
2023/06/15 07:42:57;;;;;;;73.57;8.33;;;21.20;1.00;;;;;;5075043;28;20569;-79
2023/06/15 07:45:23;;;;;;;73.17;8.17;;;21.30;1.00;;;;;;5075448;28;20224;-79
2023/06/15 07:47:48;;;;;;;70.87;7.70;;;21.30;1.00;;;;;;5074834;28;20191;-80
2023/06/15 07:50:14;;;;;;;72.93;7.67;;;21.30;1.00;;;;;;5075307;28;20162;-79
2023/06/15 07:52:40;;;;;;;71.37;7.50;;;21.40;1.00;;;;;;5079645;28;20164;-79
2023/06/15 07:55:06;;;;;;;77.10;9.23;;;21.40;1.00;;;;;;5079358;28;20623;-80
2023/06/15 07:57:34;;;;;;;108.13;84.50;;;21.50;1.00;;;;;;5079160;28;20270;-79
2023/06/15 08:00:01;;;;;;;72.70;8.57;;;21.50;1.00;;;;;;5079190;28;20759;-80
2023/06/15 08:02:27;;;;;;;71.67;9.80;;;21.60;1.00;;;;;;5079441;28;20374;-79
2023/06/15 08:04:52;;;;;;;71.30;9.70;;;21.60;1.00;;;;;;5078773;28;20738;-79
2023/06/15 08:07:19;;;;;;;73.07;10.80;;;21.70;1.00;;;;;;5060457;28;20430;-79
2023/06/15 08:09:44;;;;;;;74.50;9.77;;;21.60;1.00;;;;;;5079150;28;20210;-79
2023/06/15 08:12:10;;;;;;;75.37;10.60;;;21.70;1.00;;;;;;5078357;28;20394;-79
2023/06/15 08:14:36;;;;;;;73.67;11.30;;;21.80;1.00;;;;;;5060357;28;20167;-79
2023/06/15 08:17:02;;;;;;;74.63;9.93;;;21.90;1.00;;;;;;5077984;28;20552;-79
2023/06/15 08:19:28;;;;;;;72.60;11.60;;;21.90;1.00;;;;;;5079088;28;20286;-80
2023/06/15 08:21:54;;;;;;;73.60;12.70;;;22.00;1.00;;;;;;5079193;28;20414;-79
2023/06/15 08:24:19;;;;;;;73.00;13.03;;;21.90;1.00;;;;;;5079716;28;20635;-79
2023/06/15 08:26:45;;;;;;;74.27;12.80;;;21.90;1.00;;;;;;5078136;28;20476;-79
2023/06/15 08:29:11;;;;;;;79.00;13.07;;;22.00;1.00;;;;;;5078560;28;20191;-79
2023/06/15 08:31:38;;;;;;;74.40;14.37;;;22.00;1.00;;;;;;5077803;28;20169;-79
2023/06/15 08:34:03;;;;;;;76.20;10.57;;;22.10;1.00;;;;;;5078223;28;20406;-80
2023/06/15 08:36:29;;;;;;;72.87;10.87;;;22.20;1.00;;;;;;5077520;28;20402;-79
2023/06/15 08:38:55;;;;;;;72.17;11.93;;;22.40;1.00;;;;;;5078240;28;20200;-79
2023/06/15 08:41:22;;;;;;;71.60;10.87;;;22.50;1.00;;;;;;5078502;28;20171;-80
2023/06/15 08:43:52;;;;;;;70.73;10.50;;;22.50;1.00;;;;;;5077495;28;20168;-80
2023/06/15 08:46:18;;;;;;;71.87;12.40;;;22.60;1.00;;;;;;5059837;28;20455;-80
2023/06/15 08:48:46;;;;;;;72.40;8.23;;;22.60;1.00;;;;;;5077782;28;20976;-78
2023/06/15 08:51:12;;;;;;;75.07;8.43;;;22.60;1.00;;;;;;5077537;28;20175;-79
2023/06/15 08:53:42;;;;;;;72.43;10.57;;;22.60;1.00;;;;;;5059892;28;20421;-80
2023/06/15 08:56:13;;;;;;;71.40;9.30;;;22.70;1.00;;;;;;5078565;28;20405;-79
2023/06/15 08:58:49;;;;;;;73.63;9.43;;;22.80;1.00;;;;;;5078009;28;20939;-80
2023/06/15 09:01:22;;;;;;;72.53;7.63;;;22.90;1.00;;;;;;5077259;28;20422;-78
2023/06/15 09:03:51;;;;;;;72.17;9.40;;;22.90;1.00;;;;;;5077300;28;20379;-80
2023/06/15 09:06:17;;;;;;;72.50;7.93;;;23.20;1.00;;;;;;5077724;28;20456;-79
2023/06/15 09:08:44;;;;;;;72.97;8.77;;;23.30;1.00;;;;;;5059316;28;20612;-79
2023/06/15 09:11:10;;;;;;;71.60;8.50;;;23.30;1.00;;;;;;5076961;28;20406;-80
2023/06/15 09:13:36;;;;;;;72.30;10.60;;;23.40;1.00;;;;;;5077213;28;20937;-79
2023/06/15 09:16:03;;;;;;;75.27;9.40;;;23.40;1.00;;;;;;5077304;28;20489;-80
2023/06/15 09:18:40;;;;;;;73.97;10.30;;;23.50;1.00;;;;;;5059362;28;20450;-80
2023/06/15 09:21:13;;;;;;;74.30;10.37;;;23.70;1.00;;;;;;5077587;28;20379;-80
2023/06/15 09:23:41;;;;;;;75.43;9.20;;;23.70;1.00;;;;;;5077603;28;20379;-79
2023/06/15 09:26:07;;;;;;;70.57;7.90;;;23.90;1.00;;;;;;5077369;28;20835;-80
2023/06/15 09:28:34;;;;;;;73.03;9.80;;;24.00;1.00;;;;;;5076941;28;20461;-80
2023/06/15 09:31:00;;;;;;;72.33;9.33;;;24.10;1.00;;;;;;5058839;28;20489;-79
2023/06/15 09:33:26;;;;;;;71.50;8.47;;;24.10;1.00;;;;;;5058867;28;20849;-80
2023/06/15 09:35:54;;;;;;;72.50;7.30;;;24.20;1.00;;;;;;5076843;28;20410;-80
2023/06/15 09:38:20;;;;;;;75.67;8.03;;;24.30;1.00;;;;;;5076316;28;20203;-79
2023/06/15 09:40:46;;;;;;;70.97;5.97;;;24.30;1.00;;;;;;5076956;28;20885;-79
2023/06/15 09:43:13;;;;;;;76.07;6.93;;;24.40;1.00;;;;;;5076908;28;20168;-79
2023/06/15 09:45:49;;;;;;;72.40;7.30;;;24.40;1.00;;;;;;5076667;28;20459;-80
2023/06/15 09:48:15;;;;;;;72.17;6.10;;;24.40;1.00;;;;;;5058873;28;20517;-79
2023/06/15 09:50:41;;;;;;;72.97;5.13;;;24.60;1.00;;;;;;5076774;28;20448;-80
2023/06/15 09:53:11;;;;;;;70.70;5.47;;;24.70;1.00;;;;;;5076687;28;20164;-80
2023/06/15 09:55:43;;;;;;;71.30;5.13;;;24.90;1.00;;;;;;5077218;28;20161;-80
2023/06/15 09:58:12;;;;;;;85.10;5.33;;;25.00;1.00;;;;;;5058857;28;20466;-79
2023/06/15 10:00:38;;;;;;;70.70;4.80;;;25.00;1.00;;;;;;5076585;28;20427;-80
2023/06/15 10:03:07;;;;;;;71.60;4.77;;;25.30;1.00;;;;;;5077070;28;20453;-80
2023/06/15 10:05:38;;;;;;;71.00;5.00;;;25.60;1.00;;;;;;5059396;28;20416;-80
2023/06/15 10:08:05;;;;;;;72.70;4.57;;;25.60;1.00;;;;;;5059056;28;20435;-80
2023/06/15 10:10:35;;;;;;;72.00;4.73;;;25.60;1.00;;;;;;5076592;28;20406;-80
2023/06/15 10:13:02;;;;;;;75.60;4.33;;;25.70;1.00;;;;;;5058348;28;20404;-79
2023/06/15 10:15:29;;;;;;;76.00;4.90;;;25.50;1.00;;;;;;5076411;28;20435;-80
2023/06/15 10:17:58;;;;;;;69.83;4.80;;;25.30;1.00;;;;;;5076086;28;20453;-79
2023/06/15 10:20:24;;;;;;;70.83;5.13;;;25.30;1.00;;;;;;5058780;28;20413;-80
2023/06/15 10:23:03;;;;;;;73.97;5.40;;;25.10;1.00;;;;;;5058696;28;20763;-80
2023/06/15 10:25:32;;;;;;;70.20;4.93;;;25.10;1.00;;;;;;5076611;28;20401;-79
2023/06/15 10:28:00;;;;;;;70.10;4.67;;;25.20;1.00;;;;;;5076456;28;20433;-80
2023/06/15 10:31:09;;;;;;;72.00;5.20;;;25.10;1.00;;;;;;5077272;28;20412;-80
2023/06/15 10:33:46;;;;;;;75.87;4.70;;;25.30;1.00;;;;;;4979125;28;20832;-81
2023/06/15 10:36:53;;;;;;;70.60;5.00;;;25.70;1.00;;;;;;5071958;28;20408;-80
2023/06/15 10:39:25;;;;;;;70.90;4.73;;;26.30;1.00;;;;;;5059409;28;20415;-80
2023/06/15 10:42:11;;;;;;;72.60;5.30;;;26.70;1.00;;;;;;5058751;28;20403;-80
2023/06/15 10:44:37;;;;;;;73.77;5.70;;;27.10;1.00;;;;;;5058465;28;20885;-81
2023/06/15 10:47:19;;;;;;;72.27;5.17;;;27.70;1.00;;;;;;5059077;28;20434;-81
2023/06/15 10:49:52;;;;;;;73.00;5.13;;;28.40;1.00;;;;;;5058884;28;20186;-81
2023/06/15 10:52:18;;;;;;;72.30;4.20;;;28.60;1.00;;;;;;5077009;28;21011;-81
2023/06/15 10:54:44;;;;;;;73.43;5.07;;;28.50;1.00;;;;;;5076915;28;20400;-80
2023/06/15 10:57:16;;;;;;;72.40;4.50;;;28.90;1.00;;;;;;5058451;28;20468;-81
2023/06/15 10:59:57;;;;;;;71.10;4.30;;;28.70;1.00;;;;;;5076141;28;20382;-80
2023/06/15 11:02:28;;;;;;;69.50;3.70;;;28.80;1.00;;;;;;5076316;28;20848;-79
2023/06/15 11:05:10;;;;;;;69.73;4.20;;;28.70;1.00;;;;;;5076460;28;20931;-80
2023/06/15 11:07:43;;;;;;;77.60;4.53;;;29.10;1.00;;;;;;5076468;28;20454;-80
2023/06/15 11:10:31;;;;;;;73.70;4.07;;;29.00;1.00;;;;;;5059007;28;20492;-80
2023/06/15 11:13:04;;;;;;;70.57;4.33;;;28.60;1.00;;;;;;5076401;28;20787;-80
2023/06/15 11:15:37;;;;;;;70.27;3.73;;;28.50;1.00;;;;;;5076915;28;20389;-80
2023/06/15 11:18:14;;;;;;;70.70;3.93;;;28.60;1.00;;;;;;5058050;28;20465;-81
2023/06/15 11:20:52;;;;;;;69.93;4.13;;;28.60;1.00;;;;;;5076850;28;20378;-81
2023/06/15 11:23:23;;;;;;;70.00;4.13;;;27.90;1.00;;;;;;5076851;28;20813;-80
2023/06/15 11:25:55;;;;;;;73.17;4.17;;;27.20;1.00;;;;;;5077988;28;20486;-80
2023/06/15 11:28:24;;;;;;;71.70;4.63;;;26.70;1.00;;;;;;5080776;28;20425;-80
2023/06/15 11:30:51;;;;;;;71.33;5.33;;;26.30;1.00;;;;;;5079928;28;20402;-80
2023/06/15 11:33:26;;;;;;;72.10;6.57;;;26.00;1.00;;;;;;5080283;28;20936;-80
2023/06/15 11:35:52;;;;;;;71.47;5.13;;;26.10;1.00;;;;;;5062490;28;20497;-81
2023/06/15 11:38:20;;;;;;;71.83;6.17;;;25.80;1.00;;;;;;5079479;28;20484;-80
2023/06/15 11:40:47;;;;;;;71.10;7.40;;;25.70;1.00;;;;;;5079988;28;20574;-80
2023/06/15 11:43:14;;;;;;;73.93;6.77;;;25.50;1.00;;;;;;5061789;28;20425;-80
2023/06/15 11:45:45;;;;;;;79.00;7.57;;;25.50;1.00;;;;;;5079961;28;20390;-80
2023/06/15 11:48:15;;;;;;;72.60;6.10;;;25.50;1.00;;;;;;5061953;28;20426;-80
2023/06/15 11:50:42;;;;;;;74.90;6.83;;;25.70;1.00;;;;;;5062384;28;20417;-80
2023/06/15 11:53:07;;;;;;;70.77;5.77;;;25.90;1.00;;;;;;5080336;28;20398;-80
2023/06/15 11:55:42;;;;;;;72.13;6.67;;;26.30;1.00;;;;;;5061952;28;20455;-80
2023/06/15 11:58:08;;;;;;;75.63;5.30;;;27.00;1.00;;;;;;5080300;28;20245;-81
2023/06/15 12:00:34;;;;;;;70.07;4.10;;;27.60;1.00;;;;;;5061927;28;20426;-80
2023/06/15 12:03:00;;;;;;;71.50;5.17;;;28.00;1.00;;;;;;5079884;28;20160;-80
2023/06/15 12:05:26;;;;;;;76.60;5.30;;;28.10;1.00;;;;;;5079229;28;20390;-80
2023/06/15 12:07:52;;;;;;;72.73;4.70;;;28.30;1.00;;;;;;5079242;28;20437;-80
2023/06/15 12:10:18;;;;;;;72.37;4.47;;;28.60;1.00;;;;;;5061914;28;20172;-80
2023/06/15 12:12:50;;;;;;;74.20;6.13;;;28.70;1.00;;;;;;5079751;28;20444;-80
2023/06/15 12:15:18;;;;;;;72.73;4.80;;;28.90;1.00;;;;;;5061012;28;20160;-80
2023/06/15 12:17:43;;;;;;;71.57;4.33;;;29.20;1.00;;;;;;5061044;28;20457;-80
2023/06/15 12:20:09;;;;;;;70.47;5.23;;;29.10;1.00;;;;;;5079710;28;20402;-80
2023/06/15 12:22:46;;;;;;;70.60;4.00;;;28.70;1.00;;;;;;5062046;28;20191;-80
2023/06/15 12:25:13;;;;;;;69.40;4.07;;;28.30;1.00;;;;;;5080174;28;20371;-81
2023/06/15 12:27:42;;;;;;;73.77;4.43;;;28.30;1.00;;;;;;5080095;28;20444;-81
2023/06/15 12:30:13;;;;;;;71.07;4.60;;;28.40;1.00;;;;;;5079748;28;20769;-81
2023/06/15 12:32:57;;;;;;;71.50;5.10;;;28.60;1.00;;;;;;5080275;28;20378;-81
2023/06/15 12:35:29;;;;;;;73.77;4.33;;;28.90;1.00;;;;;;5079859;28;20386;-80
2023/06/15 12:37:56;;;;;;;73.40;4.70;;;28.90;1.00;;;;;;5079115;28;20508;-81
2023/06/15 12:40:22;;;;;;;72.20;4.17;;;29.10;1.00;;;;;;5079922;28;20432;-81
2023/06/15 12:42:59;;;;;;;75.17;4.37;;;29.40;1.00;;;;;;5079591;28;20430;-80
2023/06/15 12:45:25;;;;;;;71.60;4.67;;;29.50;1.00;;;;;;5079828;28;20904;-80
2023/06/15 12:47:51;;;;;;;71.77;4.37;;;29.40;1.00;;;;;;5079405;28;20422;-81
2023/06/15 12:50:17;;;;;;;70.77;4.30;;;29.50;1.00;;;;;;5078831;28;20402;-81